Time;durP1;ratioP1;P1;durP2;ratioP2;P2;SDS_P1;SDS_P2;PMS_P1;PMS_P2;Temp;Humidity;BMP_temperature;BMP_pressure;BME280_temperature;BME280_humidity;BME280_pressure;Samples;Min_cycle;Max_cycle;Signal;HPM_P1;HPM_P2
2022/05/18 00:00:34;;;;;;;;;;;;;;;21.51;48.39;99907.00;4451921;32;35177;-66
2022/05/18 00:03:04;;;;;;;;;;;;;;;21.70;48.22;99903.81;4448736;32;33548;-65
2022/05/18 00:05:33;;;;;;;;;;;;;;;21.73;48.08;99911.59;4452156;32;33577;-65
2022/05/18 00:08:00;;;;;;;;;;;;;;;21.71;47.85;99913.66;4453196;32;33084;-66
2022/05/18 00:10:29;;;;;;;;;;;;;;;21.68;48.12;99924.09;4452338;32;33191;-65
2022/05/18 00:12:56;;;;;;;;;;;;;;;21.61;48.01;99916.66;4450755;32;34305;-65
2022/05/18 00:15:24;;;;;;;;;;;;;;;21.69;47.79;99914.88;4450678;32;33799;-64
2022/05/18 00:17:53;;;;;;;;;;;;;;;21.67;47.81;99922.38;4452978;32;33844;-64
2022/05/18 00:20:21;;;;;;;;;;;;;;;21.64;48.34;99920.88;4446875;32;34201;-67
2022/05/18 00:22:53;;;;;;;;;;;;;;;21.53;48.84;99919.41;4438077;32;34459;-65
2022/05/18 00:25:24;;;;;;;;;;;;;;;21.71;48.36;99919.13;4449160;32;33811;-66
2022/05/18 00:27:52;;;;;;;;;;;;;;;21.69;48.50;99926.63;4451458;32;35198;-67
2022/05/18 00:30:20;;;;;;;;;;;;;;;21.65;48.49;99925.28;4445293;32;33168;-67
2022/05/18 00:32:48;;;;;;;;;;;;;;;21.59;48.41;99923.28;4444780;32;33146;-65
2022/05/18 00:35:16;;;;;;;;;;;;;;;21.38;48.29;99926.69;4447912;32;33536;-66
2022/05/18 00:37:45;;;;;;;;;;;;;;;21.23;48.16;99926.56;4450153;32;34412;-64
2022/05/18 00:40:14;;;;;;;;;;;;;;;21.32;47.93;99922.78;4443262;32;34542;-67
2022/05/18 00:42:42;;;;;;;;;;;;;;;21.34;47.84;99928.03;4444901;32;33286;-65
2022/05/18 00:45:10;;;;;;;;;;;;;;;21.29;48.06;99928.56;4447894;32;34582;-68
2022/05/18 00:47:38;;;;;;;;;;;;;;;21.03;47.86;99928.91;4452909;32;34093;-65
2022/05/18 00:50:10;;;;;;;;;;;;;;;20.92;47.43;99940.16;4453382;32;33932;-65
2022/05/18 00:52:39;;;;;;;;;;;;;;;20.66;47.02;99935.00;4446574;32;34460;-65
2022/05/18 00:55:08;;;;;;;;;;;;;;;20.84;46.81;99938.31;4449493;32;33118;-68
2022/05/18 00:57:38;;;;;;;;;;;;;;;20.79;46.56;99938.00;4440740;32;34035;-67
2022/05/18 01:00:08;;;;;;;;;;;;;;;20.70;46.39;99945.31;4450390;32;34008;-67
2022/05/18 01:02:37;;;;;;;;;;;;;;;20.83;45.63;99944.78;4448220;32;35407;-67
2022/05/18 01:05:05;;;;;;;;;;;;;;;20.60;46.27;99950.13;4437989;32;31876;-67
2022/05/18 01:07:36;;;;;;;;;;;;;;;20.92;45.34;99954.59;4441298;32;35508;-65
2022/05/18 01:10:04;;;;;;;;;;;;;;;21.02;44.97;99948.94;4447059;32;35045;-65
2022/05/18 01:12:32;;;;;;;;;;;;;;;20.83;45.52;99960.25;4445563;32;33233;-66
2022/05/18 01:15:05;;;;;;;;;;;;;;;21.13;44.40;99953.16;4444127;32;33858;-65
2022/05/18 01:17:35;;;;;;;;;;;;;;;21.05;45.00;99959.47;4446937;32;34859;-65
2022/05/18 01:20:08;;;;;;;;;;;;;;;20.68;46.21;99961.00;4444274;32;34364;-65
2022/05/18 01:22:48;;;;;;;;;;;;;;;20.46;46.37;99965.25;4445555;32;33544;-67
2022/05/18 01:25:19;;;;;;;;;;;;;;;20.72;45.46;99961.50;4443942;32;33475;-66
2022/05/18 01:27:49;;;;;;;;;;;;;;;20.53;45.72;99973.59;4440872;32;33854;-65
2022/05/18 01:30:18;;;;;;;;;;;;;;;20.77;45.47;99969.97;4443864;32;34345;-66
2022/05/18 01:32:50;;;;;;;;;;;;;;;20.84;45.29;99967.41;4446238;32;33412;-65
2022/05/18 01:35:21;;;;;;;;;;;;;;;21.12;44.59;99967.78;4439747;32;32608;-64
2022/05/18 01:37:50;;;;;;;;;;;;;;;20.99;44.99;99965.63;4448277;32;32888;-65
2022/05/18 01:40:38;;;;;;;;;;;;;;;21.04;44.87;99976.84;4441482;32;34073;-65
2022/05/18 01:43:10;;;;;;;;;;;;;;;21.23;44.28;99972.00;4443945;32;34565;-65
2022/05/18 01:45:40;;;;;;;;;;;;;;;20.61;45.88;99972.72;4447580;32;32323;-65
2022/05/18 01:48:09;;;;;;;;;;;;;;;20.48;45.23;99979.53;4446848;32;33908;-65
2022/05/18 01:50:38;;;;;;;;;;;;;;;20.65;45.63;99977.66;4444429;32;33933;-64
2022/05/18 01:53:08;;;;;;;;;;;;;;;20.78;45.11;99979.00;4443827;32;34475;-67
2022/05/18 01:55:38;;;;;;;;;;;;;;;21.04;44.23;99982.28;4447485;32;32263;-66
2022/05/18 01:58:08;;;;;;;;;;;;;;;20.84;44.37;99983.72;4441144;32;34342;-65
2022/05/18 02:00:36;;;;;;;;;;;;;;;20.87;44.48;99988.81;4438032;32;34005;-64
2022/05/18 02:03:06;;;;;;;;;;;;;;;20.72;44.59;99991.41;4448597;32;35634;-65
2022/05/18 02:05:36;;;;;;;;;;;;;;;20.72;44.92;99994.13;4446781;32;33185;-65
2022/05/18 02:08:06;;;;;;;;;;;;;;;20.81;44.95;100000.41;4449512;32;34117;-65
2022/05/18 02:10:40;;;;;;;;;;;;;;;20.81;45.27;100005.84;4443463;32;34629;-65
2022/05/18 02:13:08;;;;;;;;;;;;;;;20.73;45.03;100017.56;4440750;32;34521;-66
2022/05/18 02:15:37;;;;;;;;;;;;;;;20.61;45.10;100018.94;4450210;32;34064;-66
2022/05/18 02:18:05;;;;;;;;;;;;;;;20.56;44.82;100014.06;4445508;32;32484;-65
2022/05/18 02:20:34;;;;;;;;;;;;;;;20.49;44.51;100015.72;4445512;32;34575;-65
2022/05/18 02:23:02;;;;;;;;;;;;;;;20.35;45.06;100027.28;4437771;32;35192;-64
2022/05/18 02:25:32;;;;;;;;;;;;;;;20.43;45.02;100024.56;4445477;32;33840;-65
2022/05/18 02:28:00;;;;;;;;;;;;;;;20.50;44.84;100030.16;4451114;32;34852;-65
2022/05/18 02:30:28;;;;;;;;;;;;;;;20.51;45.44;100029.12;4448760;32;34179;-66
2022/05/18 02:32:57;;;;;;;;;;;;;;;20.54;46.10;100037.00;4450591;32;33397;-67
2022/05/18 02:35:25;;;;;;;;;;;;;;;20.38;47.88;100040.53;4449030;32;34652;-68
2022/05/18 02:37:53;;;;;;;;;;;;;;;20.40;48.01;100047.50;4443918;32;32942;-67
2022/05/18 02:40:22;;;;;;;;;;;;;;;20.45;48.38;100050.56;4448501;32;34451;-69
2022/05/18 02:42:50;;;;;;;;;;;;;;;20.44;48.66;100048.00;4446078;32;32694;-69
2022/05/18 02:45:19;;;;;;;;;;;;;;;20.43;49.21;100049.03;4444352;32;33608;-68
2022/05/18 02:47:48;;;;;;;;;;;;;;;20.39;49.56;100050.41;4451918;32;34158;-69
2022/05/18 02:50:17;;;;;;;;;;;;;;;20.45;49.17;100055.16;4449748;32;34430;-67
2022/05/18 02:52:45;;;;;;;;;;;;;;;20.49;49.13;100061.97;4445704;32;32062;-68
2022/05/18 02:58:17;;;;;;;;;;;;;;;20.49;48.80;100064.66;4414310;32;32663;-69
2022/05/18 03:00:45;;;;;;;;;;;;;;;20.44;49.18;100075.19;4440366;32;33826;-67
2022/05/18 03:03:13;;;;;;;;;;;;;;;20.41;49.15;100067.37;4447364;32;34396;-68
2022/05/18 03:05:42;;;;;;;;;;;;;;;20.31;49.26;100072.16;4448043;32;32519;-67
2022/05/18 03:08:10;;;;;;;;;;;;;;;20.33;48.20;100079.12;4447349;32;34041;-69
2022/05/18 03:10:38;;;;;;;;;;;;;;;20.32;47.74;100074.72;4446912;32;34045;-72
2022/05/18 03:13:07;;;;;;;;;;;;;;;20.28;48.18;100083.34;4448882;32;34045;-69
2022/05/18 03:15:35;;;;;;;;;;;;;;;20.39;47.42;100088.47;4444860;32;33445;-71
2022/05/18 03:18:03;;;;;;;;;;;;;;;19.92;48.51;100095.38;4454785;32;34296;-69
2022/05/18 03:23:33;;;;;;;;;;;;;;;19.90;48.45;100097.41;4449965;32;34223;-68
2022/05/18 03:26:03;;;;;;;;;;;;;;;20.03;48.16;100105.06;4446478;32;33053;-70
2022/05/18 03:28:30;;;;;;;;;;;;;;;19.89;47.81;100112.00;4448894;32;32520;-69
2022/05/18 03:30:58;;;;;;;;;;;;;;;19.93;47.46;100115.22;4446155;32;32888;-69
2022/05/18 03:33:27;;;;;;;;;;;;;;;19.65;47.59;100125.53;4449417;32;35249;-69
2022/05/18 03:35:55;;;;;;;;;;;;;;;19.73;47.17;100128.25;4449762;32;33736;-69
2022/05/18 03:38:24;;;;;;;;;;;;;;;19.62;47.36;100133.97;4447484;32;34046;-69
2022/05/18 03:40:53;;;;;;;;;;;;;;;19.53;47.15;100133.06;4441299;32;33009;-69
2022/05/18 03:43:24;;;;;;;;;;;;;;;19.49;47.31;100134.41;4448688;32;35207;-68
2022/05/18 03:46:01;;;;;;;;;;;;;;;19.57;47.08;100142.56;4451763;32;32147;-68
2022/05/18 03:48:29;;;;;;;;;;;;;;;19.71;46.90;100152.00;4449487;32;34847;-68
2022/05/18 03:50:59;;;;;;;;;;;;;;;19.75;47.47;100156.09;4447733;32;33363;-68
2022/05/18 03:53:28;;;;;;;;;;;;;;;19.90;47.48;100153.59;4446734;32;35994;-69
2022/05/18 03:55:58;;;;;;;;;;;;;;;19.92;47.73;100170.59;4453712;32;32524;-69
2022/05/18 03:58:27;;;;;;;;;;;;;;;20.07;47.62;100174.38;4448347;32;33933;-69
2022/05/18 04:01:00;;;;;;;;;;;;;;;20.09;47.88;100179.63;4449345;32;33998;-69
2022/05/18 04:03:31;;;;;;;;;;;;;;;19.97;48.61;100174.50;4449075;32;33155;-68
2022/05/18 04:05:59;;;;;;;;;;;;;;;19.98;48.81;100176.22;4448023;32;33411;-69
2022/05/18 04:08:27;;;;;;;;;;;;;;;19.96;48.96;100180.09;4450298;32;34058;-70
2022/05/18 04:10:57;;;;;;;;;;;;;;;20.05;47.27;100180.97;4447467;32;34389;-68
2022/05/18 04:13:25;;;;;;;;;;;;;;;19.93;48.53;100185.84;4451528;32;34382;-68
2022/05/18 04:15:55;;;;;;;;;;;;;;;20.11;47.49;100186.59;4450396;32;32593;-68
2022/05/18 04:18:25;;;;;;;;;;;;;;;20.05;48.11;100194.56;4450760;32;35019;-69
2022/05/18 04:20:55;;;;;;;;;;;;;;;20.24;47.18;100206.00;4446639;32;35677;-69
2022/05/18 04:23:24;;;;;;;;;;;;;;;20.35;47.03;100204.84;4449339;32;33132;-69
2022/05/18 04:25:54;;;;;;;;;;;;;;;20.38;47.14;100206.37;4449910;32;34323;-68
2022/05/18 04:28:22;;;;;;;;;;;;;;;20.52;46.02;100211.19;4449085;32;32728;-68
2022/05/18 04:30:57;;;;;;;;;;;;;;;20.53;45.94;100212.88;4446540;32;34268;-70
2022/05/18 04:33:33;;;;;;;;;;;;;;;20.59;46.40;100225.81;4447157;32;35513;-69
2022/05/18 04:36:02;;;;;;;;;;;;;;;20.75;45.69;100224.97;4446852;32;33656;-69
2022/05/18 04:38:32;;;;;;;;;;;;;;;20.93;45.71;100230.28;4445373;32;34201;-69
2022/05/18 04:41:01;;;;;;;;;;;;;;;20.73;47.25;100237.88;4451704;32;34346;-69
2022/05/18 04:43:34;;;;;;;;;;;;;;;20.57;48.50;100241.44;4442904;32;33300;-71
2022/05/18 04:46:02;;;;;;;;;;;;;;;21.02;46.90;100237.41;4448013;32;33722;-69
2022/05/18 04:48:31;;;;;;;;;;;;;;;21.07;47.08;100239.63;4452817;32;32210;-68
2022/05/18 04:51:04;;;;;;;;;;;;;;;20.83;47.75;100244.00;4446940;32;34067;-69
2022/05/18 04:53:35;;;;;;;;;;;;;;;21.31;46.10;100241.47;4439947;32;33318;-70
2022/05/18 04:56:05;;;;;;;;;;;;;;;21.45;45.88;100243.53;4449468;32;32226;-69
2022/05/18 04:58:35;;;;;;;;;;;;;;;21.32;45.57;100248.62;4445148;32;33473;-70
2022/05/18 05:01:05;;;;;;;;;;;;;;;21.45;45.09;100256.28;4448634;32;33205;-69
2022/05/18 05:03:34;;;;;;;;;;;;;;;21.52;44.06;100269.03;4447110;32;34254;-69
2022/05/18 05:06:05;;;;;;;;;;;;;;;21.73;43.63;100273.06;4451345;32;32838;-71
2022/05/18 05:08:37;;;;;;;;;;;;;;;21.70;44.70;100267.97;4448708;32;33077;-69
2022/05/18 05:11:07;;;;;;;;;;;;;;;21.61;44.38;100273.44;4447509;32;33154;-72
2022/05/18 05:13:36;;;;;;;;;;;;;;;21.71;44.24;100275.97;4445410;32;34587;-70
2022/05/18 05:16:05;;;;;;;;;;;;;;;21.60;43.84;100285.38;4447705;32;33646;-69
2022/05/18 05:18:40;;;;;;;;;;;;;;;21.42;43.83;100287.44;4448016;32;33763;-72
2022/05/18 05:21:11;;;;;;;;;;;;;;;21.52;43.34;100288.09;4449698;32;35549;-71
2022/05/18 05:23:39;;;;;;;;;;;;;;;21.65;43.34;100300.34;4448722;32;35545;-71
2022/05/18 05:26:08;;;;;;;;;;;;;;;21.54;44.10;100302.41;4445839;32;32304;-68
2022/05/18 05:28:36;;;;;;;;;;;;;;;21.56;43.56;100302.22;4448795;32;35288;-69
2022/05/18 05:31:07;;;;;;;;;;;;;;;21.43;41.63;100313.62;4449277;32;34115;-69
2022/05/18 05:33:36;;;;;;;;;;;;;;;20.85;38.70;100322.75;4448398;32;34242;-69
2022/05/18 05:36:06;;;;;;;;;;;;;;;19.72;40.40;100314.78;4441386;32;32210;-70
2022/05/18 05:38:34;;;;;;;;;;;;;;;19.34;41.11;100326.00;4449279;32;34388;-68
2022/05/18 05:41:02;;;;;;;;;;;;;;;18.91;40.62;100338.47;4443148;32;33664;-70
2022/05/18 05:43:31;;;;;;;;;;;;;;;18.38;42.02;100342.78;4449024;32;34578;-67
2022/05/18 05:46:01;;;;;;;;;;;;;;;17.59;42.72;100351.28;4450083;32;34437;-68
2022/05/18 05:48:30;;;;;;;;;;;;;;;17.30;44.07;100356.72;4448890;32;33710;-67
2022/05/18 05:51:00;;;;;;;;;;;;;;;17.78;43.13;100362.09;4444432;32;33963;-66
2022/05/18 05:53:27;;;;;;;;;;;;;;;18.02;44.07;100367.03;4443941;32;34090;-70
2022/05/18 05:56:08;;;;;;;;;;;;;;;18.38;42.75;100370.75;4451405;32;32404;-68
2022/05/18 05:58:44;;;;;;;;;;;;;;;18.12;44.35;100378.69;4451255;32;32942;-69
2022/05/18 06:01:16;;;;;;;;;;;;;;;17.86;44.98;100383.91;4451865;32;34258;-68
2022/05/18 06:03:49;;;;;;;;;;;;;;;18.11;44.34;100389.69;4451463;32;33265;-68
2022/05/18 06:06:24;;;;;;;;;;;;;;;17.84;44.13;100399.44;4451958;32;32571;-68
2022/05/18 06:08:58;;;;;;;;;;;;;;;17.81;42.81;100397.00;4447262;32;33974;-69
2022/05/18 06:11:29;;;;;;;;;;;;;;;18.39;42.27;100407.69;4453131;32;34012;-68
2022/05/18 06:14:00;;;;;;;;;;;;;;;18.21;41.69;100409.47;4451218;32;34481;-69
2022/05/18 06:16:31;;;;;;;;;;;;;;;18.25;41.54;100412.72;4449867;32;32912;-67
2022/05/18 06:19:01;;;;;;;;;;;;;;;18.09;41.69;100413.34;4451530;32;33238;-68
2022/05/18 06:21:38;;;;;;;;;;;;;;;18.20;41.83;100415.88;4451988;32;35561;-69
2022/05/18 06:24:12;;;;;;;;;;;;;;;18.31;42.01;100422.97;4451807;32;33099;-69
2022/05/18 06:26:46;;;;;;;;;;;;;;;18.73;42.27;100425.25;4449991;32;32129;-69
2022/05/18 06:29:18;;;;;;;;;;;;;;;18.60;41.27;100426.41;4447159;32;33347;-68
2022/05/18 06:31:50;;;;;;;;;;;;;;;18.81;40.46;100428.06;4452001;32;34173;-68
2022/05/18 06:34:32;;;;;;;;;;;;;;;18.95;38.70;100434.84;4448371;32;34134;-68
2022/05/18 06:37:04;;;;;;;;;;;;;;;18.88;38.83;100439.19;4450819;32;34108;-70
2022/05/18 06:39:40;;;;;;;;;;;;;;;18.65;39.33;100442.25;4393981;32;1850876;-70
2022/05/18 06:42:13;;;;;;;;;;;;;;;18.42;40.11;100443.63;4448812;32;35418;-70
2022/05/18 06:44:44;;;;;;;;;;;;;;;18.33;39.88;100451.66;4446374;32;33356;-68
2022/05/18 06:47:22;;;;;;;;;;;;;;;18.38;40.58;100453.91;4434416;32;33228;-68
2022/05/18 06:49:57;;;;;;;;;;;;;;;18.53;41.52;100457.84;4429775;32;35233;-69
2022/05/18 06:52:31;;;;;;;;;;;;;;;18.29;40.75;100468.34;4431523;32;34728;-69
2022/05/18 06:55:05;;;;;;;;;;;;;;;18.03;41.82;100476.22;4433806;32;33024;-69
2022/05/18 06:57:34;;;;;;;;;;;;;;;17.89;40.41;100478.38;4438422;32;33546;-71
2022/05/18 07:00:08;;;;;;;;;;;;;;;18.83;39.96;100480.28;4438323;32;33059;-71
2022/05/18 07:02:40;;;;;;;;;;;;;;;19.31;40.68;100476.44;4441673;32;33023;-68
2022/05/18 07:05:16;;;;;;;;;;;;;;;19.02;38.18;100480.19;4441105;32;34159;-70
2022/05/18 07:07:59;;;;;;;;;;;;;;;18.78;39.04;100488.91;4441205;32;33771;-68
2022/05/18 07:10:32;;;;;;;;;;;;;;;18.86;38.82;100493.56;4436392;32;33217;-68
2022/05/18 07:13:04;;;;;;;;;;;;;;;19.08;40.20;100504.00;4439270;32;35477;-69
2022/05/18 07:15:39;;;;;;;;;;;;;;;19.59;37.43;100501.69;4437796;32;34203;-68
2022/05/18 07:18:17;;;;;;;;;;;;;;;19.15;39.46;100514.25;4439776;32;32400;-68
2022/05/18 07:20:50;;;;;;;;;;;;;;;19.02;38.12;100514.59;4439033;32;34298;-69
2022/05/18 07:23:21;;;;;;;;;;;;;;;19.21;38.02;100514.50;4438777;32;34350;-69
2022/05/18 07:26:01;;;;;;;;;;;;;;;19.33;38.98;100519.72;4439459;32;33200;-68
2022/05/18 07:28:34;;;;;;;;;;;;;;;19.66;37.55;100512.81;4437441;32;32258;-68
2022/05/18 07:31:08;;;;;;;;;;;;;;;19.70;37.69;100517.75;4438194;32;32863;-69
2022/05/18 07:34:00;;;;;;;;;;;;;;;20.00;37.27;100523.84;4426678;32;34050;-69
2022/05/18 07:36:34;;;;;;;;;;;;;;;20.08;35.67;100521.16;4438349;32;33183;-70
2022/05/18 07:39:08;;;;;;;;;;;;;;;19.76;36.68;100522.56;4437802;32;33335;-69
2022/05/18 07:41:43;;;;;;;;;;;;;;;19.69;35.92;100531.50;4438272;32;33240;-69
2022/05/18 07:44:21;;;;;;;;;;;;;;;20.06;35.30;100528.59;4437423;32;35293;-70
2022/05/18 07:46:55;;;;;;;;;;;;;;;19.84;36.43;100531.81;4450644;32;34399;-71
2022/05/18 07:49:25;;;;;;;;;;;;;;;20.23;34.65;100530.47;4452522;32;34009;-69
2022/05/18 07:52:08;;;;;;;;;;;;;;;19.82;35.28;100525.69;4452037;32;33246;-70
2022/05/18 07:54:47;;;;;;;;;;;;;;;19.77;35.97;100540.59;4455426;32;34050;-71
2022/05/18 07:57:23;;;;;;;;;;;;;;;20.32;34.07;100541.38;4455851;32;34292;-71
2022/05/18 07:59:59;;;;;;;;;;;;;;;19.86;34.86;100540.66;4453464;32;33472;-71
2022/05/18 08:02:38;;;;;;;;;;;;;;;19.95;34.16;100550.59;4448184;32;34022;-72
2022/05/18 08:05:08;;;;;;;;;;;;;;;19.92;35.23;100542.75;4449788;32;35639;-69
2022/05/18 08:07:45;;;;;;;;;;;;;;;19.63;35.50;100546.53;4454810;32;34053;-68
2022/05/18 08:15:56;;;;;;;;;;;;;;;19.95;34.63;100558.75;4447984;32;34316;-68
2022/05/18 08:18:24;;;;;;;;;;;;;;;19.87;36.15;100574.97;4451080;32;34457;-68
2022/05/18 08:20:54;;;;;;;;;;;;;;;20.41;34.38;100570.34;4452843;32;32660;-69
2022/05/18 08:23:22;;;;;;;;;;;;;;;20.53;33.60;100576.41;4447969;32;32755;-69
2022/05/18 08:25:54;;;;;;;;;;;;;;;20.40;35.40;100583.09;4451593;32;33148;-66
2022/05/18 08:28:22;;;;;;;;;;;;;;;19.29;35.13;100585.19;4451856;32;34966;-66
2022/05/18 08:30:52;;;;;;;;;;;;;;;19.39;35.52;100587.84;4453003;32;32309;-67
2022/05/18 08:33:26;;;;;;;;;;;;;;;19.60;35.53;100593.00;4452236;32;34102;-66
2022/05/18 08:36:08;;;;;;;;;;;;;;;19.53;36.29;100594.62;4451776;32;33506;-69
2022/05/18 08:38:45;;;;;;;;;;;;;;;19.45;36.47;100589.06;4452799;32;33297;-69
2022/05/18 08:41:20;;;;;;;;;;;;;;;19.73;37.07;100601.66;4451017;32;32496;-71
2022/05/18 08:43:54;;;;;;;;;;;;;;;19.35;36.61;100597.28;4450946;32;34066;-70
2022/05/18 08:46:29;;;;;;;;;;;;;;;18.77;38.35;100600.22;4449933;32;33383;-67
2022/05/18 08:49:10;;;;;;;;;;;;;;;19.08;37.79;100596.25;4449705;32;33387;-70
2022/05/18 08:51:55;;;;;;;;;;;;;;;19.63;37.88;100598.12;4448798;32;32680;-67
2022/05/18 08:54:56;;;;;;;;;;;;;;;19.83;35.74;100601.59;4446929;32;33420;-67
2022/05/18 08:57:28;;;;;;;;;;;;;;;18.95;37.28;100609.31;4440414;32;34495;-67
2022/05/18 08:59:58;;;;;;;;;;;;;;;19.14;37.12;100607.53;4452414;32;34185;-69
2022/05/18 09:02:30;;;;;;;;;;;;;;;19.33;38.69;100615.59;4453137;32;34356;-68
2022/05/18 09:05:00;;;;;;;;;;;;;;;20.11;35.29;100613.25;4439533;32;34837;-68
2022/05/18 09:07:57;;;;;;;;;;;;;;;20.13;34.90;100613.97;4450502;32;35371;-67
2022/05/18 09:10:44;;;;;;;;;;;;;;;19.90;35.27;100610.84;4448743;32;34561;-67
2022/05/18 09:13:26;;;;;;;;;;;;;;;20.07;34.61;100617.28;4450393;32;33230;-68
2022/05/18 09:16:08;;;;;;;;;;;;;;;19.84;35.58;100603.31;4451345;32;33260;-68
2022/05/18 09:18:46;;;;;;;;;;;;;;;20.11;33.53;100617.84;4452118;32;34281;-69
2022/05/18 09:21:24;;;;;;;;;;;;;;;19.97;33.75;100628.25;4448762;32;34286;-68
2022/05/18 09:24:06;;;;;;;;;;;;;;;20.50;33.29;100618.34;4446020;32;32527;-67
2022/05/18 09:26:38;;;;;;;;;;;;;;;20.83;32.25;100618.62;4448240;32;33025;-67
2022/05/18 09:29:49;;;;;;;;;;;;;;;20.75;31.36;100619.41;4444564;32;33219;-67
2022/05/18 09:32:25;;;;;;;;;;;;;;;21.02;30.82;100621.09;4386199;32;33228;-67
2022/05/18 09:35:04;;;;;;;;;;;;;;;20.40;32.12;100617.59;4452891;32;31850;-67
2022/05/18 09:37:39;;;;;;;;;;;;;;;20.79;32.41;100628.13;4446138;32;34143;-69
2022/05/18 09:40:18;;;;;;;;;;;;;;;20.66;29.96;100631.25;4447980;32;34366;-67
2022/05/18 09:43:08;;;;;;;;;;;;;;;21.11;31.09;100624.75;4450967;32;34261;-70
2022/05/18 09:45:49;;;;;;;;;;;;;;;21.72;29.08;100631.84;4451263;32;33596;-68
2022/05/18 09:48:27;;;;;;;;;;;;;;;21.94;28.68;100633.09;4449227;32;35016;-69
2022/05/18 09:51:05;;;;;;;;;;;;;;;22.38;28.50;100646.50;4445504;32;35679;-68
2022/05/18 09:53:39;;;;;;;;;;;;;;;22.62;27.37;100632.00;4450328;32;33987;-69
2022/05/18 09:56:12;;;;;;;;;;;;;;;22.52;27.40;100632.16;4447701;32;33048;-69
2022/05/18 09:58:45;;;;;;;;;;;;;;;22.90;26.97;100632.47;4444695;32;34423;-69
2022/05/18 10:07:28;;;;;;;;;;;;;;;23.28;24.49;100646.44;4449084;32;33814;-69
2022/05/18 10:10:05;;;;;;;;;;;;;;;22.75;24.31;100635.06;4451059;32;32761;-71
2022/05/18 10:12:37;;;;;;;;;;;;;;;22.43;25.50;100641.38;4449583;32;35463;-71
2022/05/18 10:15:20;;;;;;;;;;;;;;;22.28;26.83;100646.66;4446579;32;36053;-74
2022/05/18 10:17:55;;;;;;;;;;;;;;;22.49;25.36;100635.25;4437283;32;32202;-69
2022/05/18 10:20:30;;;;;;;;;;;;;;;22.83;27.05;100639.66;4442472;32;33840;-69
2022/05/18 10:22:58;;;;;;;;;;;;;;;23.21;24.57;100639.94;4440063;32;34571;-69
2022/05/18 10:25:26;;;;;;;;;;;;;;;22.74;25.61;100638.81;4447943;32;34119;-71
2022/05/18 10:27:54;;;;;;;;;;;;;;;22.91;24.57;100628.72;4443081;32;33191;-73
2022/05/18 10:30:29;;;;;;;;;;;;;;;22.72;24.85;100624.47;4446972;32;34321;-71
2022/05/18 10:33:00;;;;;;;;;;;;;;;22.73;24.57;100628.09;4444409;32;34144;-72
2022/05/18 10:35:53;;;;;;;;;;;;;;;22.77;25.90;100637.63;4442142;32;33023;-72
2022/05/18 10:38:31;;;;;;;;;;;;;;;22.51;23.69;100622.28;4443916;32;32278;-72
2022/05/18 10:41:02;;;;;;;;;;;;;;;23.17;24.00;100616.75;4445963;32;33870;-69
2022/05/18 10:43:31;;;;;;;;;;;;;;;22.98;24.10;100621.56;4442567;32;33820;-70
2022/05/18 10:46:17;;;;;;;;;;;;;;;23.63;22.71;100615.03;4446859;32;35130;-71
2022/05/18 10:49:00;;;;;;;;;;;;;;;23.99;23.04;100611.78;4444381;32;33733;-69
2022/05/18 10:51:45;;;;;;;;;;;;;;;23.17;20.62;100616.75;4447492;32;33260;-71
2022/05/18 10:54:15;;;;;;;;;;;;;;;23.29;21.55;100620.81;4439436;32;34414;-71
2022/05/18 10:56:43;;;;;;;;;;;;;;;23.57;20.94;100614.91;4447695;32;34496;-73
2022/05/18 10:59:17;;;;;;;;;;;;;;;22.66;22.35;100616.97;4455791;32;33423;-73
2022/05/18 11:01:54;;;;;;;;;;;;;;;23.10;19.46;100618.47;4441175;32;34211;-75
2022/05/18 11:04:31;;;;;;;;;;;;;;;22.39;20.60;100618.19;4444833;32;33453;-71
2022/05/18 11:06:59;;;;;;;;;;;;;;;23.38;21.14;100608.81;4450947;32;32551;-72
2022/05/18 11:09:32;;;;;;;;;;;;;;;23.10;20.71;100611.13;4443434;32;32018;-69
2022/05/18 11:12:16;;;;;;;;;;;;;;;23.45;22.64;100612.53;4445394;32;33931;-71
2022/05/18 11:14:49;;;;;;;;;;;;;;;22.31;20.32;100627.25;4448544;32;35184;-71
2022/05/18 11:17:29;;;;;;;;;;;;;;;22.51;21.22;100622.28;4446440;32;35321;-71
2022/05/18 11:20:13;;;;;;;;;;;;;;;22.30;22.62;100620.06;4448735;32;34175;-73
2022/05/18 11:22:59;;;;;;;;;;;;;;;23.05;21.31;100604.50;4441594;32;34482;-71
2022/05/18 11:25:34;;;;;;;;;;;;;;;23.06;22.46;100608.94;4442565;32;34391;-69
2022/05/18 11:28:35;;;;;;;;;;;;;;;22.85;22.93;100613.03;4443972;32;34985;-72
2022/05/18 11:31:03;;;;;;;;;;;;;;;23.16;20.19;100609.59;4447367;32;32461;-69
2022/05/18 11:33:36;;;;;;;;;;;;;;;23.38;20.38;100613.44;4446580;32;33670;-69
2022/05/18 11:36:08;;;;;;;;;;;;;;;23.65;20.18;100603.91;4453654;32;35832;-72
2022/05/18 11:38:58;;;;;;;;;;;;;;;23.69;20.96;100599.81;4441569;32;34244;-71
2022/05/18 11:41:44;;;;;;;;;;;;;;;24.26;18.52;100593.97;4440704;32;33752;-68
2022/05/18 11:44:32;;;;;;;;;;;;;;;24.43;18.98;100594.75;4448141;32;33210;-69
2022/05/18 11:47:19;;;;;;;;;;;;;;;24.20;18.81;100589.22;4445727;32;33054;-71
2022/05/18 11:50:02;;;;;;;;;;;;;;;24.30;19.55;100600.78;4441172;32;34198;-68
2022/05/18 11:52:40;;;;;;;;;;;;;;;24.69;20.90;100597.06;4447344;32;33411;-70
2022/05/18 11:55:08;;;;;;;;;;;;;;;24.60;18.60;100600.91;4448421;32;34300;-69
2022/05/18 11:57:51;;;;;;;;;;;;;;;24.49;17.62;100596.69;4443963;32;35511;-68
2022/05/18 12:00:46;;;;;;;;;;;;;;;23.46;18.59;100599.72;4451173;32;34455;-72
2022/05/18 12:03:20;;;;;;;;;;;;;;;23.26;18.19;100596.56;4461235;32;33930;-71
2022/05/18 12:05:53;;;;;;;;;;;;;;;23.90;20.19;100591.00;4450150;32;34394;-69
2022/05/18 12:08:27;;;;;;;;;;;;;;;23.51;17.16;100597.31;4433626;32;34531;-69
2022/05/18 12:11:11;;;;;;;;;;;;;;;23.43;17.12;100597.34;4444962;32;33512;-70
2022/05/18 12:13:48;;;;;;;;;;;;;;;23.31;17.28;100610.56;4439738;32;36751;-72
2022/05/18 12:16:25;;;;;;;;;;;;;;;23.70;16.75;100607.00;4444670;32;35201;-71
2022/05/18 12:18:59;;;;;;;;;;;;;;;23.79;17.52;100595.00;4438990;32;34442;-70
2022/05/18 12:21:30;;;;;;;;;;;;;;;22.96;17.70;100600.94;4438944;32;34189;-71
2022/05/18 12:24:00;;;;;;;;;;;;;;;23.41;17.32;100596.69;4443136;32;33273;-70
2022/05/18 12:26:34;;;;;;;;;;;;;;;23.28;17.37;100600.00;4444876;32;34306;-70
2022/05/18 12:29:03;;;;;;;;;;;;;;;23.63;17.84;100597.78;4446594;32;32674;-70
2022/05/18 12:31:32;;;;;;;;;;;;;;;22.98;18.55;100596.16;4434401;32;33212;-70
2022/05/18 12:34:03;;;;;;;;;;;;;;;23.47;19.79;100596.00;4446204;32;32488;-69
2022/05/18 12:36:34;;;;;;;;;;;;;;;23.42;18.50;100603.84;4443550;32;33862;-68
2022/05/18 12:39:08;;;;;;;;;;;;;;;23.42;18.63;100598.41;4449201;32;35316;-70
2022/05/18 12:41:38;;;;;;;;;;;;;;;23.61;19.14;100597.13;4449095;32;34428;-69
2022/05/18 12:44:11;;;;;;;;;;;;;;;23.34;19.71;100607.47;4443011;32;33512;-70
2022/05/18 12:46:51;;;;;;;;;;;;;;;24.13;20.66;100599.19;4447388;32;33915;-72
2022/05/18 12:49:28;;;;;;;;;;;;;;;23.88;18.56;100593.91;4443083;32;35107;-70
2022/05/18 12:52:02;;;;;;;;;;;;;;;23.36;19.21;100599.94;4447840;32;34206;-70
2022/05/18 12:54:33;;;;;;;;;;;;;;;22.28;18.23;100610.37;4434126;32;33082;-68
2022/05/18 12:57:04;;;;;;;;;;;;;;;23.24;18.02;100598.62;4446395;32;34113;-69
2022/05/18 12:59:51;;;;;;;;;;;;;;;23.01;19.30;100604.84;4448027;32;34204;-68
2022/05/18 13:02:32;;;;;;;;;;;;;;;22.77;18.82;100604.88;4447071;32;34619;-70
2022/05/18 13:05:04;;;;;;;;;;;;;;;22.46;18.42;100594.66;4436451;32;33201;-69
2022/05/18 13:07:32;;;;;;;;;;;;;;;23.27;19.41;100584.62;4440705;32;32812;-68
2022/05/18 13:10:07;;;;;;;;;;;;;;;22.90;17.59;100594.28;4449353;32;35370;-68
2022/05/18 13:12:37;;;;;;;;;;;;;;;23.56;17.88;100588.59;4442381;32;33097;-70
2022/05/18 13:15:17;;;;;;;;;;;;;;;24.00;16.97;100588.88;4446666;32;32293;-68
2022/05/18 13:17:51;;;;;;;;;;;;;;;24.33;17.50;100589.50;4444615;32;34134;-69
2022/05/18 13:20:26;;;;;;;;;;;;;;;24.27;18.97;100592.94;4443419;32;33142;-70
2022/05/18 13:23:02;;;;;;;;;;;;;;;23.98;17.23;100593.69;4445285;32;33332;-68
2022/05/18 13:25:35;;;;;;;;;;;;;;;23.94;15.09;100587.69;4441811;32;33259;-68